createdAt,value
2022-10-02T00:01:33.783Z,0.90
2022-10-02T00:04:06.806Z,0.80
2022-10-02T00:06:43.870Z,0.70
2022-10-02T00:11:50.783Z,0.90
2022-10-02T00:14:24.035Z,0.60
2022-10-02T00:16:57.617Z,0.80
2022-10-02T00:19:28.352Z,0.60
2022-10-02T00:22:10.768Z,0.80
2022-10-02T00:24:46.990Z,0.70
2022-10-02T00:27:32.663Z,0.80
2022-10-02T00:30:05.520Z,0.60
2022-10-02T00:32:42.485Z,1.00
2022-10-02T00:38:06.263Z,1.20
2022-10-02T00:40:54.895Z,0.70
2022-10-02T00:43:32.629Z,0.70
2022-10-02T00:46:22.512Z,0.90
2022-10-02T00:49:13.124Z,0.90
2022-10-02T00:52:06.009Z,0.80
2022-10-02T00:55:04.999Z,1.00
2022-10-02T00:57:51.673Z,1.10
2022-10-02T01:00:25.849Z,1.00
2022-10-02T01:03:09.960Z,0.60
2022-10-02T01:05:40.349Z,0.90
2022-10-02T01:08:10.963Z,1.10
2022-10-02T01:10:42.739Z,0.90
2022-10-02T01:13:13.459Z,1.00
2022-10-02T01:15:53.810Z,0.70
2022-10-02T01:18:24.654Z,0.90
2022-10-02T01:21:00.103Z,0.90
2022-10-02T01:23:37.839Z,0.70
2022-10-02T01:26:08.776Z,0.70
2022-10-02T01:28:39.366Z,0.80
2022-10-02T01:31:14.746Z,0.80
2022-10-02T01:33:48.452Z,1.00
2022-10-02T01:36:19.432Z,0.80
2022-10-02T01:38:52.238Z,0.70
2022-10-02T01:41:23.519Z,0.60
2022-10-02T01:43:58.160Z,0.70
2022-10-02T01:46:36.474Z,0.70
2022-10-02T01:49:25.545Z,0.80
2022-10-02T01:52:15.709Z,0.80
2022-10-02T01:55:01.274Z,0.70
2022-10-02T01:57:42.683Z,1.00
2022-10-02T02:00:17.406Z,0.60
2022-10-02T02:02:57.120Z,0.70
2022-10-02T02:05:41.204Z,0.90
2022-10-02T02:08:18.540Z,0.70
2022-10-02T02:10:59.561Z,0.80
2022-10-02T02:13:35.254Z,1.00
2022-10-02T02:16:15.144Z,0.70
2022-10-02T02:18:52.531Z,0.70
2022-10-02T02:21:32.099Z,0.70
2022-10-02T02:24:05.226Z,0.80
2022-10-02T02:26:37.240Z,0.70
2022-10-02T02:29:10.096Z,0.80
2022-10-02T02:31:45.165Z,0.80
2022-10-02T02:34:19.350Z,0.70
2022-10-02T02:36:54.613Z,0.90
2022-10-02T02:39:31.988Z,1.00
2022-10-02T02:42:06.232Z,0.90
2022-10-02T02:44:41.184Z,0.70
2022-10-02T02:47:14.530Z,1.00
2022-10-02T02:49:52.719Z,0.90
2022-10-02T02:52:27.137Z,1.00
2022-10-02T02:55:03.266Z,0.90
2022-10-02T02:57:39.949Z,1.70
2022-10-02T03:00:12.116Z,0.70
2022-10-02T03:02:42.377Z,0.80
2022-10-02T03:05:17.835Z,0.70
2022-10-02T03:07:53.765Z,0.80
2022-10-02T03:10:37.107Z,0.80
2022-10-02T03:13:19.276Z,1.10
2022-10-02T03:15:59.701Z,2.10
2022-10-02T03:18:50.414Z,0.80
2022-10-02T03:21:30.450Z,0.70
2022-10-02T03:24:11.386Z,0.60
2022-10-02T03:26:45.712Z,0.90
2022-10-02T03:29:20.417Z,1.00
2022-10-02T03:31:51.613Z,0.70
2022-10-02T03:34:23.620Z,0.90
2022-10-02T03:36:55.104Z,1.00
2022-10-02T03:39:26.240Z,1.00
2022-10-02T03:41:57.225Z,0.90
2022-10-02T03:44:27.616Z,0.90
2022-10-02T03:46:57.922Z,0.90
2022-10-02T03:49:28.793Z,1.00
2022-10-02T03:51:59.036Z,1.10
2022-10-02T03:54:36.762Z,1.00
2022-10-02T03:57:12.683Z,1.20
2022-10-02T03:59:49.154Z,0.90
2022-10-02T04:02:36.140Z,1.30
2022-10-02T04:05:18.868Z,1.50
2022-10-02T04:07:53.429Z,0.90
2022-10-02T04:10:32.050Z,1.00
2022-10-02T04:13:11.578Z,1.00
2022-10-02T04:15:54.786Z,0.90
2022-10-02T04:18:29.121Z,0.80
2022-10-02T04:21:04.755Z,1.10
2022-10-02T04:23:39.118Z,0.90
2022-10-02T04:26:15.445Z,0.80
2022-10-02T04:28:51.916Z,1.20
2022-10-02T04:31:22.298Z,0.80
2022-10-02T04:33:52.616Z,1.10
2022-10-02T04:36:37.440Z,1.30
2022-10-02T04:39:28.806Z,0.80
2022-10-02T04:42:30.695Z,0.70
2022-10-02T04:45:16.012Z,0.90
2022-10-02T04:48:10.332Z,0.80
2022-10-02T04:50:55.239Z,0.90
2022-10-02T04:53:44.614Z,1.00
2022-10-02T04:56:32.656Z,0.90
2022-10-02T04:59:20.321Z,1.00
2022-10-02T05:02:02.994Z,1.50
2022-10-02T05:05:02.730Z,0.70
2022-10-02T05:08:04.037Z,0.90
2022-10-02T05:10:53.412Z,0.80
2022-10-02T05:13:45.755Z,0.90
2022-10-02T05:16:29.060Z,0.90
2022-10-02T05:19:14.219Z,0.80
2022-10-02T05:22:15.281Z,0.70
2022-10-02T05:24:58.873Z,1.40
2022-10-02T05:27:49.655Z,0.90
2022-10-02T05:30:21.131Z,0.80
2022-10-02T05:33:17.307Z,0.90
2022-10-02T05:36:06.877Z,0.90
2022-10-02T05:39:01.123Z,1.00
2022-10-02T05:41:41.767Z,1.10
2022-10-02T05:44:21.612Z,1.20
2022-10-02T05:46:58.505Z,0.90
2022-10-02T05:49:34.648Z,0.80
2022-10-02T05:52:08.939Z,0.90
2022-10-02T05:54:49.641Z,1.00
2022-10-02T05:57:27.375Z,1.10
2022-10-02T06:00:06.345Z,2.00
2022-10-02T06:02:45.038Z,1.00
2022-10-02T06:05:24.056Z,0.90
2022-10-02T06:07:58.944Z,1.10
2022-10-02T06:10:34.472Z,1.00
2022-10-02T06:13:13.227Z,0.60
2022-10-02T06:15:52.210Z,1.10
2022-10-02T06:18:27.762Z,1.00
2022-10-02T06:21:04.010Z,0.90
2022-10-02T06:23:40.646Z,0.80
2022-10-02T06:26:16.327Z,1.00
2022-10-02T06:28:52.597Z,0.90
2022-10-02T06:31:34.820Z,1.10
2022-10-02T06:34:05.331Z,1.00
2022-10-02T06:37:08.304Z,0.80
2022-10-02T06:39:51.656Z,0.80
2022-10-02T06:42:34.047Z,0.80
2022-10-02T06:45:11.995Z,1.00
2022-10-02T06:47:59.913Z,0.80
2022-10-02T06:50:43.104Z,1.10
2022-10-02T06:53:27.764Z,0.90
2022-10-02T06:56:06.130Z,0.80
2022-10-02T06:58:56.358Z,0.70
2022-10-02T07:01:41.360Z,0.90
2022-10-02T07:04:30.273Z,1.00
2022-10-02T07:07:22.963Z,1.00
2022-10-02T07:10:12.741Z,1.20
2022-10-02T07:12:58.076Z,1.10
2022-10-02T07:15:57.961Z,1.40
2022-10-02T07:18:42.813Z,1.10
2022-10-02T07:21:22.963Z,1.20
2022-10-02T07:24:02.759Z,1.20
2022-10-02T07:26:58.361Z,1.20
2022-10-02T07:29:43.525Z,0.80
2022-10-02T07:32:39.993Z,1.00
2022-10-02T07:35:35.159Z,0.70
2022-10-02T07:38:43.502Z,0.70
2022-10-02T07:44:11.353Z,1.20
2022-10-02T07:46:56.177Z,0.80
2022-10-02T07:49:41.654Z,1.00
2022-10-02T07:52:25.688Z,1.00
2022-10-02T07:55:09.237Z,1.20
2022-10-02T07:57:43.747Z,0.90
2022-10-02T08:00:18.290Z,1.20
2022-10-02T08:02:54.764Z,1.00
2022-10-02T08:05:29.435Z,0.90
2022-10-02T08:08:05.216Z,1.00
2022-10-02T08:10:40.596Z,0.80
2022-10-02T08:13:20.662Z,0.90
2022-10-02T08:15:57.000Z,0.90
2022-10-02T08:18:35.299Z,0.80
2022-10-02T08:21:15.558Z,1.10
2022-10-02T08:23:51.297Z,1.00
2022-10-02T08:26:31.781Z,1.10
2022-10-02T08:29:12.244Z,1.10
2022-10-02T08:31:42.801Z,1.00
2022-10-02T08:34:19.965Z,1.00
2022-10-02T08:37:13.318Z,0.90
2022-10-02T08:40:14.468Z,1.00
2022-10-02T08:43:32.306Z,0.80
2022-10-02T08:46:35.244Z,0.80
2022-10-02T08:49:40.262Z,1.10
2022-10-02T08:52:38.772Z,1.40
2022-10-02T08:55:37.837Z,0.90
2022-10-02T08:58:37.510Z,0.90
2022-10-02T09:01:25.628Z,0.90
2022-10-02T09:04:40.719Z,0.80
2022-10-02T09:07:39.531Z,0.70
2022-10-02T09:14:09.793Z,0.80
2022-10-02T09:16:59.588Z,0.70
2022-10-02T09:19:49.161Z,0.80
2022-10-02T09:22:50.391Z,0.80
2022-10-02T09:25:31.166Z,0.80
2022-10-02T09:28:26.487Z,0.80
2022-10-02T09:31:25.227Z,1.00
2022-10-02T09:34:19.555Z,0.70
2022-10-02T09:37:10.356Z,0.70
2022-10-02T09:40:14.979Z,1.10
2022-10-02T09:43:11.275Z,1.30
2022-10-02T09:46:03.806Z,1.00
2022-10-02T09:49:11.008Z,1.10
2022-10-02T09:52:06.381Z,0.80
2022-10-02T09:55:15.495Z,1.20
2022-10-02T09:58:15.598Z,0.90
2022-10-02T10:00:58.189Z,1.00
2022-10-02T10:03:44.008Z,1.30
2022-10-02T10:06:48.221Z,1.30
2022-10-02T10:09:46.108Z,1.10
2022-10-02T10:15:29.059Z,1.30
2022-10-02T10:18:27.699Z,1.30
2022-10-02T10:21:36.530Z,1.10
2022-10-02T10:24:29.426Z,1.30
2022-10-02T10:27:19.491Z,1.30
2022-10-02T10:30:06.826Z,1.10
2022-10-02T10:35:30.931Z,1.30
2022-10-02T10:38:32.243Z,1.30
2022-10-02T10:41:20.911Z,1.70
2022-10-02T10:44:19.531Z,1.10
2022-10-02T10:47:22.227Z,0.90
2022-10-02T10:50:29.101Z,1.20
2022-10-02T10:53:21.893Z,1.20
2022-10-02T10:56:27.817Z,1.00
2022-10-02T10:59:24.448Z,1.40
2022-10-02T11:02:15.746Z,1.00
2022-10-02T11:05:01.906Z,1.00
2022-10-02T11:07:54.263Z,1.00
2022-10-02T11:10:47.420Z,1.20
2022-10-02T11:13:39.139Z,0.80
2022-10-02T11:16:28.965Z,1.00
2022-10-02T11:19:21.318Z,1.10
2022-10-02T11:22:22.221Z,0.80
2022-10-02T11:25:15.646Z,0.80
2022-10-02T11:28:06.534Z,0.90
2022-10-02T11:30:43.136Z,0.80
2022-10-02T11:33:34.459Z,1.00
2022-10-02T11:36:22.983Z,0.80
2022-10-02T11:39:11.751Z,0.80
2022-10-02T11:42:09.443Z,1.30
2022-10-02T11:45:04.605Z,0.80
2022-10-02T11:47:50.503Z,1.00
2022-10-02T11:50:52.706Z,1.00
2022-10-02T11:53:54.478Z,0.90
2022-10-02T11:56:52.730Z,0.90
2022-10-02T11:59:52.347Z,0.90
2022-10-02T12:02:26.385Z,1.00
2022-10-02T12:05:14.791Z,1.00
2022-10-02T12:07:47.992Z,0.80
2022-10-02T12:10:28.131Z,1.10
2022-10-02T12:13:10.104Z,0.90
2022-10-02T12:15:49.173Z,0.90
2022-10-02T12:18:31.567Z,1.30
2022-10-02T12:21:36.306Z,1.10
2022-10-02T12:24:36.495Z,1.30
2022-10-02T12:27:15.400Z,1.20
2022-10-02T12:29:59.841Z,1.50
2022-10-02T12:32:39.906Z,1.50
2022-10-02T12:35:22.401Z,0.80
2022-10-02T12:38:02.728Z,0.80
2022-10-02T12:40:40.113Z,0.70
2022-10-02T12:43:53.874Z,0.60
2022-10-02T12:46:36.423Z,0.60
2022-10-02T12:49:19.491Z,1.40
2022-10-02T12:52:07.520Z,0.80
2022-10-02T12:55:09.089Z,0.90
2022-10-02T12:58:04.068Z,0.60
2022-10-02T13:00:52.896Z,0.60
2022-10-02T13:03:58.491Z,0.70
2022-10-02T13:07:02.170Z,0.50
2022-10-02T13:09:54.145Z,0.40
2022-10-02T13:12:37.270Z,0.50
2022-10-02T13:15:35.096Z,0.40
2022-10-02T13:18:20.503Z,0.40
2022-10-02T13:21:05.564Z,0.90
2022-10-02T13:23:44.600Z,0.40
2022-10-02T13:26:22.259Z,0.90
2022-10-02T13:29:18.855Z,0.50
2022-10-02T13:31:59.438Z,0.70
2022-10-02T13:34:43.640Z,0.60
2022-10-02T13:37:19.231Z,0.80
2022-10-02T13:40:03.704Z,0.80
2022-10-02T13:42:47.074Z,1.00
2022-10-02T13:45:25.719Z,0.70
2022-10-02T13:48:03.191Z,0.80
2022-10-02T13:50:42.503Z,0.90
2022-10-02T13:53:39.573Z,0.80
2022-10-02T13:56:17.884Z,0.90
2022-10-02T13:59:11.131Z,1.10
2022-10-02T14:01:49.036Z,0.80
2022-10-02T14:04:32.753Z,1.10
2022-10-02T14:07:08.515Z,0.80
2022-10-02T14:09:54.829Z,1.00
2022-10-02T14:12:43.899Z,1.50
2022-10-02T14:15:30.813Z,0.90
2022-10-02T14:18:24.965Z,1.10
2022-10-02T14:20:58.539Z,0.90
2022-10-02T14:23:40.578Z,1.20
2022-10-02T14:26:16.758Z,0.80
2022-10-02T14:29:13.644Z,0.90
2022-10-02T14:32:04.418Z,1.00
2022-10-02T14:34:54.892Z,1.00
2022-10-02T14:37:50.603Z,0.80
2022-10-02T14:40:19.625Z,0.80
2022-10-02T14:43:03.693Z,1.00
2022-10-02T14:45:51.191Z,1.10
2022-10-02T14:48:36.071Z,1.40
2022-10-02T14:51:27.341Z,1.00
2022-10-02T14:54:11.625Z,1.20
2022-10-02T14:57:18.570Z,1.00
2022-10-02T15:00:13.056Z,1.20
2022-10-02T15:02:55.050Z,1.20
2022-10-02T15:05:38.619Z,1.90
2022-10-02T15:08:13.818Z,1.30
2022-10-02T15:10:44.348Z,1.50
2022-10-02T15:13:23.459Z,1.40
2022-10-02T15:16:10.100Z,1.10
2022-10-02T15:18:42.979Z,1.20
2022-10-02T15:21:26.266Z,1.00
2022-10-02T15:23:57.673Z,1.10
2022-10-02T15:26:36.355Z,1.10
2022-10-02T15:29:20.627Z,1.50
2022-10-02T15:32:19.553Z,1.10
2022-10-02T15:34:55.024Z,0.90
2022-10-02T15:37:27.622Z,1.00
2022-10-02T15:40:10.757Z,1.50
2022-10-02T15:42:57.529Z,1.00
2022-10-02T15:45:40.273Z,1.00
2022-10-02T15:48:33.667Z,1.20
2022-10-02T15:51:10.237Z,1.30
2022-10-02T15:53:50.775Z,1.10
2022-10-02T15:56:32.831Z,1.30
2022-10-02T15:59:19.923Z,1.00
2022-10-02T16:02:00.688Z,1.50
2022-10-02T16:04:37.654Z,1.40
2022-10-02T16:10:07.376Z,1.10
2022-10-02T16:12:51.834Z,1.40
2022-10-02T16:15:25.093Z,1.90
2022-10-02T16:18:18.647Z,1.40
2022-10-02T16:21:11.954Z,1.30
2022-10-02T16:24:01.547Z,1.30
2022-10-02T16:27:01.146Z,1.30
2022-10-02T16:29:41.356Z,1.20
2022-10-02T16:32:17.435Z,1.40
2022-10-02T16:35:15.863Z,1.60
2022-10-02T16:37:45.991Z,1.80
2022-10-02T16:40:29.186Z,1.50
2022-10-02T16:43:31.735Z,1.30
2022-10-02T16:46:07.497Z,1.90
2022-10-02T16:48:51.572Z,1.70
2022-10-02T16:51:35.232Z,1.50
2022-10-02T16:54:14.274Z,1.50
2022-10-02T16:56:49.653Z,1.10
2022-10-02T16:59:23.918Z,1.40
2022-10-02T17:02:16.463Z,1.60
2022-10-02T17:04:55.052Z,1.70
2022-10-02T17:07:42.010Z,1.90
2022-10-02T17:10:22.938Z,1.70
2022-10-02T17:13:03.450Z,1.70
2022-10-02T17:15:39.580Z,1.20
2022-10-02T17:18:22.182Z,1.40
2022-10-02T17:20:55.259Z,1.50
2022-10-02T17:23:34.401Z,1.60
2022-10-02T17:26:08.474Z,1.50
2022-10-02T17:28:46.177Z,1.40
2022-10-02T17:31:30.503Z,2.00
2022-10-02T17:34:12.407Z,1.60
2022-10-02T17:36:51.715Z,1.50
2022-10-02T17:39:47.282Z,2.10
2022-10-02T17:42:29.706Z,1.80
2022-10-02T17:45:07.967Z,1.50
2022-10-02T17:47:47.667Z,1.90
2022-10-02T17:50:44.103Z,1.40
2022-10-02T17:53:45.498Z,1.60
2022-10-02T17:56:36.738Z,1.30
2022-10-02T17:59:26.779Z,1.50
2022-10-02T18:02:06.075Z,1.60
2022-10-02T18:04:44.186Z,1.50
2022-10-02T18:07:26.997Z,1.50
2022-10-02T18:10:11.055Z,1.70
2022-10-02T18:13:14.305Z,1.90
2022-10-02T18:16:16.357Z,1.40
2022-10-02T18:19:04.315Z,2.00
2022-10-02T18:21:38.734Z,2.10
2022-10-02T18:24:45.342Z,2.00
2022-10-02T18:27:37.204Z,1.70
2022-10-02T18:30:16.153Z,1.50
2022-10-02T18:33:30.896Z,1.50
2022-10-02T18:36:13.784Z,1.90
2022-10-02T18:39:04.350Z,1.80
2022-10-02T18:41:51.053Z,1.80
2022-10-02T18:44:39.279Z,1.60
2022-10-02T18:47:15.986Z,1.90
2022-10-02T18:49:57.357Z,1.70
2022-10-02T18:52:51.902Z,1.70
2022-10-02T18:55:50.014Z,1.60
2022-10-02T19:01:24.995Z,1.70
2022-10-02T19:04:11.687Z,1.80
2022-10-02T19:06:51.478Z,2.20
2022-10-02T19:09:26.184Z,2.10
2022-10-02T19:12:00.662Z,2.20
2022-10-02T19:14:36.121Z,2.20
2022-10-02T19:17:12.386Z,2.00
2022-10-02T19:19:41.331Z,2.00
2022-10-02T19:22:24.754Z,2.10
2022-10-02T19:24:59.126Z,1.90
2022-10-02T19:27:32.261Z,1.80
2022-10-02T19:32:49.906Z,1.90
2022-10-02T19:35:20.421Z,1.70
2022-10-02T19:37:52.200Z,1.90
2022-10-02T19:40:26.281Z,1.60
2022-10-02T19:43:01.585Z,2.10
2022-10-02T19:45:32.785Z,1.90
2022-10-02T19:48:03.610Z,2.00
2022-10-02T19:50:40.457Z,2.00
2022-10-02T19:53:19.907Z,1.90
2022-10-02T19:55:52.408Z,2.00
2022-10-02T19:58:21.977Z,2.20
2022-10-02T20:00:51.773Z,2.00
2022-10-02T20:03:24.314Z,1.80
2022-10-02T20:05:55.922Z,1.90
2022-10-02T20:08:26.752Z,1.90
2022-10-02T20:11:01.814Z,1.50
2022-10-02T20:13:37.277Z,2.00
2022-10-02T20:16:31.632Z,1.70
2022-10-02T20:19:00.785Z,1.50
2022-10-02T20:21:37.214Z,1.60
2022-10-02T20:24:16.415Z,1.60
2022-10-02T20:26:45.360Z,1.60
2022-10-02T20:29:17.256Z,1.70
2022-10-02T20:31:49.599Z,1.50
2022-10-02T20:34:25.388Z,2.00
2022-10-02T20:36:58.835Z,1.60
2022-10-02T20:39:34.466Z,2.00
2022-10-02T20:42:09.289Z,1.50
2022-10-02T20:44:37.874Z,1.50
2022-10-02T20:47:28.765Z,1.50
2022-10-02T20:50:21.628Z,2.20
2022-10-02T20:53:30.526Z,1.60
2022-10-02T20:56:04.190Z,1.40
2022-10-02T20:59:15.191Z,1.40
2022-10-02T21:01:59.234Z,1.40
2022-10-02T21:05:03.898Z,1.40
2022-10-02T21:07:52.412Z,1.60
2022-10-02T21:10:55.656Z,1.60
2022-10-02T21:13:52.264Z,1.50
2022-10-02T21:16:44.915Z,1.60
2022-10-02T21:19:44.751Z,1.90
2022-10-02T21:22:39.831Z,1.30
2022-10-02T21:25:30.730Z,1.40
2022-10-02T21:28:21.617Z,1.60
2022-10-02T21:31:04.402Z,1.80
2022-10-02T21:33:38.565Z,1.60
2022-10-02T21:36:15.017Z,1.90
2022-10-02T21:39:07.798Z,1.90
2022-10-02T21:41:53.615Z,2.20
2022-10-02T21:45:13.097Z,1.80
2022-10-02T21:48:20.653Z,2.10
2022-10-02T21:51:30.692Z,2.00
2022-10-02T21:54:22.755Z,1.50
2022-10-02T21:57:35.342Z,1.80
2022-10-02T22:00:12.805Z,1.50
2022-10-02T22:03:27.509Z,1.80
2022-10-02T22:06:32.317Z,1.90
2022-10-02T22:09:11.160Z,1.70
2022-10-02T22:11:51.136Z,1.70
2022-10-02T22:14:28.790Z,1.70
2022-10-02T22:17:03.797Z,1.80
2022-10-02T22:19:51.111Z,1.90
2022-10-02T22:22:27.836Z,1.50
2022-10-02T22:25:11.548Z,1.60
2022-10-02T22:27:54.230Z,1.80
2022-10-02T22:30:25.470Z,1.70
2022-10-02T22:33:10.131Z,1.80
2022-10-02T22:35:59.753Z,1.60
2022-10-02T22:38:33.647Z,1.90
2022-10-02T22:41:08.288Z,1.80
2022-10-02T22:43:44.230Z,1.50
2022-10-02T22:46:28.939Z,1.70
2022-10-02T22:49:03.167Z,2.20
2022-10-02T22:51:40.910Z,1.80
2022-10-02T22:54:22.310Z,1.60
2022-10-02T22:56:57.080Z,2.40
2022-10-02T22:59:30.946Z,1.60
2022-10-02T23:02:07.132Z,2.20
2022-10-02T23:04:41.955Z,2.30
2022-10-02T23:07:17.047Z,1.40
2022-10-02T23:09:51.362Z,2.30
2022-10-02T23:12:28.072Z,1.60
2022-10-02T23:15:15.177Z,2.00
2022-10-02T23:17:50.200Z,1.60
2022-10-02T23:20:27.878Z,1.80
2022-10-02T23:23:02.551Z,1.70
2022-10-02T23:25:35.788Z,1.90
2022-10-02T23:28:09.864Z,1.80
2022-10-02T23:30:43.251Z,1.40
2022-10-02T23:33:24.283Z,1.50
2022-10-02T23:35:59.723Z,1.70
2022-10-02T23:38:40.999Z,1.40
2022-10-02T23:41:34.493Z,1.50
2022-10-02T23:44:16.702Z,1.30
2022-10-02T23:46:59.906Z,1.70
2022-10-02T23:49:34.101Z,1.70
2022-10-02T23:52:26.388Z,1.30
2022-10-02T23:55:06.345Z,1.40
2022-10-02T23:57:51.887Z,1.30
